createdAt,value
2023-02-17T00:01:10.892Z,17.75
2023-02-17T00:03:37.640Z,17.20
2023-02-17T00:06:09.789Z,16.38
2023-02-17T00:08:36.945Z,16.52
2023-02-17T00:11:03.770Z,15.55
2023-02-17T00:13:30.308Z,16.27
2023-02-17T00:15:57.105Z,15.07
2023-02-17T00:18:23.986Z,14.88
2023-02-17T00:20:50.931Z,14.43
2023-02-17T00:23:18.083Z,14.50
2023-02-17T00:25:44.822Z,14.85
2023-02-17T00:28:11.454Z,14.52
2023-02-17T00:30:39.364Z,14.85
2023-02-17T00:33:06.474Z,14.55
2023-02-17T00:35:33.313Z,14.27
2023-02-17T00:38:00.064Z,14.13
2023-02-17T00:40:26.707Z,14.20
2023-02-17T00:42:55.010Z,13.73
2023-02-17T00:45:21.906Z,14.48
2023-02-17T00:47:48.861Z,14.80
2023-02-17T00:50:21.428Z,14.73
2023-02-17T00:52:47.968Z,16.02
2023-02-17T00:55:14.499Z,16.77
2023-02-17T00:57:41.133Z,19.15
2023-02-17T01:00:09.307Z,19.40
2023-02-17T01:02:35.949Z,19.65
2023-02-17T01:05:04.145Z,20.48
2023-02-17T01:07:30.648Z,20.80
2023-02-17T01:09:57.351Z,22.02
2023-02-17T01:12:23.957Z,21.02
2023-02-17T01:14:51.687Z,21.88
2023-02-17T01:17:18.303Z,20.65
2023-02-17T01:19:44.805Z,19.63
2023-02-17T01:22:11.495Z,19.27
2023-02-17T01:24:39.154Z,18.58
2023-02-17T01:27:05.895Z,18.40
2023-02-17T01:29:32.633Z,17.52
2023-02-17T01:31:59.246Z,16.48
2023-02-17T01:34:27.236Z,16.08
2023-02-17T01:36:53.869Z,14.95
2023-02-17T01:39:20.511Z,13.75
2023-02-17T01:41:47.359Z,12.88
2023-02-17T01:44:20.433Z,11.65
2023-02-17T01:46:50.825Z,11.00
2023-02-17T01:49:31.115Z,9.90
2023-02-17T01:52:18.437Z,9.70
2023-02-17T01:55:07.761Z,9.77
2023-02-17T01:57:37.917Z,9.73
2023-02-17T02:00:08.347Z,10.80
2023-02-17T02:02:42.030Z,9.90
2023-02-17T02:05:10.124Z,9.48
2023-02-17T02:07:41.565Z,10.00
2023-02-17T02:10:09.842Z,10.82
2023-02-17T02:12:38.942Z,10.15
2023-02-17T02:15:09.778Z,9.85
2023-02-17T02:17:49.417Z,10.25
2023-02-17T02:20:37.666Z,9.18
2023-02-17T02:23:25.388Z,9.82
2023-02-17T02:26:15.885Z,9.82
2023-02-17T02:29:25.118Z,9.40
2023-02-17T02:32:01.990Z,9.60
2023-02-17T02:34:54.437Z,10.20
2023-02-17T02:37:36.741Z,11.60
2023-02-17T02:40:07.581Z,11.40
2023-02-17T02:42:36.160Z,12.95
2023-02-17T02:45:07.521Z,13.10
2023-02-17T02:47:45.204Z,13.93
2023-02-17T02:50:19.318Z,13.57
2023-02-17T02:52:56.909Z,14.23
2023-02-17T02:55:44.329Z,14.07
2023-02-17T02:58:36.264Z,14.10
2023-02-17T03:01:21.852Z,13.15
2023-02-17T03:04:31.852Z,14.00
2023-02-17T03:07:09.386Z,14.23
2023-02-17T03:09:36.637Z,14.90
2023-02-17T03:12:05.016Z,14.32
2023-02-17T03:14:37.583Z,14.30
2023-02-17T03:17:04.325Z,14.35
2023-02-17T03:19:31.084Z,14.43
2023-02-17T03:22:08.012Z,13.45
2023-02-17T03:24:35.293Z,14.52
2023-02-17T03:27:02.124Z,13.52
2023-02-17T03:29:28.773Z,13.82
2023-02-17T03:31:55.982Z,14.07
2023-02-17T03:34:22.556Z,13.18
2023-02-17T03:36:49.188Z,13.02
2023-02-17T03:39:16.652Z,13.45
2023-02-17T03:41:43.311Z,14.70
2023-02-17T03:44:10.032Z,13.75
2023-02-17T03:46:39.936Z,13.90
2023-02-17T03:49:06.471Z,12.82
2023-02-17T03:51:33.113Z,11.63
2023-02-17T03:53:59.640Z,10.48
2023-02-17T03:56:27.504Z,10.90
2023-02-17T03:58:57.214Z,10.18
2023-02-17T04:01:24.562Z,9.35
2023-02-17T04:03:51.674Z,9.23
2023-02-17T04:06:18.357Z,10.23
2023-02-17T04:08:44.924Z,7.72
2023-02-17T04:11:11.728Z,8.38
2023-02-17T04:13:38.461Z,8.30
2023-02-17T04:16:06.898Z,7.82
2023-02-17T04:18:34.408Z,8.13
2023-02-17T04:21:01.340Z,7.20
2023-02-17T04:23:28.285Z,7.38
2023-02-17T04:25:55.024Z,6.82
2023-02-17T04:28:22.584Z,7.70
2023-02-17T04:30:51.322Z,7.57
2023-02-17T04:33:18.418Z,7.28
2023-02-17T04:35:47.627Z,7.07
2023-02-17T04:38:14.255Z,6.75
2023-02-17T04:40:42.739Z,7.93
2023-02-17T04:43:09.685Z,6.35
2023-02-17T04:45:37.677Z,7.18
2023-02-17T04:48:04.378Z,7.20
2023-02-17T04:50:31.019Z,6.53
2023-02-17T04:52:57.774Z,6.50
2023-02-17T04:55:24.386Z,6.82
2023-02-17T04:57:51.025Z,6.85
2023-02-17T05:00:17.868Z,7.65
2023-02-17T05:02:44.503Z,7.22
2023-02-17T05:05:15.303Z,7.85
2023-02-17T05:07:43.111Z,7.50
2023-02-17T05:10:09.953Z,7.43
2023-02-17T05:12:36.678Z,7.57
2023-02-17T05:15:04.548Z,7.40
2023-02-17T05:17:31.182Z,7.30
2023-02-17T05:19:58.234Z,7.35
2023-02-17T05:22:25.169Z,7.40
2023-02-17T05:24:51.810Z,6.82
2023-02-17T05:27:19.057Z,6.88
2023-02-17T05:29:46.102Z,7.05
2023-02-17T05:32:13.251Z,6.30
2023-02-17T05:34:40.001Z,6.40
2023-02-17T05:37:06.532Z,5.93
2023-02-17T05:39:33.065Z,6.05
2023-02-17T05:41:59.598Z,5.97
2023-02-17T05:44:26.333Z,6.30
2023-02-17T05:46:53.025Z,6.40
2023-02-17T05:49:19.606Z,6.40
2023-02-17T05:51:46.246Z,6.07
2023-02-17T05:54:13.805Z,6.13
2023-02-17T05:56:40.551Z,6.30
2023-02-17T05:59:07.159Z,6.30
2023-02-17T06:01:34.426Z,6.50
2023-02-17T06:04:02.192Z,6.63
2023-02-17T06:06:28.979Z,6.53
2023-02-17T06:08:55.577Z,6.68
2023-02-17T06:11:22.205Z,7.00
2023-02-17T06:13:48.739Z,6.88
2023-02-17T06:16:15.305Z,7.18
2023-02-17T06:18:41.919Z,7.32
2023-02-17T06:21:08.459Z,8.10
2023-02-17T06:23:50.136Z,7.18
2023-02-17T06:26:18.551Z,8.25
2023-02-17T06:28:45.453Z,8.38
2023-02-17T06:31:12.207Z,7.72
2023-02-17T06:33:38.826Z,8.50
2023-02-17T06:36:06.113Z,8.40
2023-02-17T06:38:32.829Z,7.75
2023-02-17T06:40:59.757Z,8.27
2023-02-17T06:43:26.300Z,8.13
2023-02-17T06:45:52.878Z,7.80
2023-02-17T06:48:19.465Z,8.38
2023-02-17T06:50:46.101Z,8.55
2023-02-17T06:53:12.632Z,8.35
2023-02-17T06:55:39.647Z,8.90
2023-02-17T06:58:07.356Z,9.63
2023-02-17T07:00:34.079Z,8.90
2023-02-17T07:03:00.944Z,9.77
2023-02-17T07:05:27.663Z,9.52
2023-02-17T07:07:57.676Z,9.60
2023-02-17T07:10:24.317Z,9.73
2023-02-17T07:12:51.780Z,9.75
2023-02-17T07:15:18.619Z,9.75
2023-02-17T07:17:45.249Z,9.77
2023-02-17T07:20:12.719Z,9.82
2023-02-17T07:22:39.548Z,9.60
2023-02-17T07:25:06.692Z,9.85
2023-02-17T07:27:36.609Z,9.45
2023-02-17T07:30:04.516Z,9.93
2023-02-17T07:32:31.111Z,9.70
2023-02-17T07:34:57.755Z,10.32
2023-02-17T07:37:24.389Z,9.60
2023-02-17T07:39:52.472Z,10.88
2023-02-17T07:42:19.085Z,9.60
2023-02-17T07:44:49.818Z,10.60
2023-02-17T07:47:16.558Z,10.38
2023-02-17T07:49:43.210Z,10.05
2023-02-17T07:52:09.829Z,10.27
2023-02-17T07:54:36.581Z,10.30
2023-02-17T07:57:03.240Z,9.50
2023-02-17T07:59:29.953Z,10.65
2023-02-17T08:01:56.708Z,9.55
2023-02-17T08:04:23.365Z,10.02
2023-02-17T08:06:51.191Z,9.90
2023-02-17T08:09:36.458Z,8.95
2023-02-17T08:12:35.245Z,10.55
2023-02-17T08:15:02.204Z,9.35
2023-02-17T08:17:29.346Z,8.95
2023-02-17T08:19:56.180Z,9.13
2023-02-17T08:22:22.814Z,9.20
2023-02-17T08:24:49.475Z,9.73
2023-02-17T08:27:16.848Z,9.20
2023-02-17T08:29:44.157Z,9.15
2023-02-17T08:32:11.189Z,9.60
2023-02-17T08:34:37.941Z,9.30
2023-02-17T08:37:06.548Z,8.32
2023-02-17T08:39:34.069Z,9.13
2023-02-17T08:42:01.282Z,8.80
2023-02-17T08:44:27.871Z,8.13
2023-02-17T08:46:54.924Z,8.50
2023-02-17T08:49:24.526Z,8.30
2023-02-17T08:51:52.298Z,8.50
2023-02-17T08:54:19.030Z,8.27
2023-02-17T08:56:45.769Z,8.63
2023-02-17T08:59:12.925Z,7.82
2023-02-17T09:01:40.225Z,8.57
2023-02-17T09:04:08.552Z,9.20
2023-02-17T09:06:42.470Z,8.18
2023-02-17T09:09:12.014Z,8.32
2023-02-17T09:11:38.818Z,8.60
2023-02-17T09:14:06.995Z,7.93
2023-02-17T09:16:33.831Z,8.10
2023-02-17T09:19:00.444Z,8.02
2023-02-17T09:21:27.078Z,8.13
2023-02-17T09:23:54.029Z,8.70
2023-02-17T09:26:21.128Z,8.25
2023-02-17T09:28:48.015Z,7.85
2023-02-17T09:31:20.263Z,8.18
2023-02-17T09:33:48.368Z,7.43
2023-02-17T09:36:18.565Z,8.27
2023-02-17T09:38:45.207Z,8.73
2023-02-17T09:41:27.013Z,8.70
2023-02-17T09:43:55.176Z,8.15
2023-02-17T09:47:00.511Z,8.75
2023-02-17T09:49:35.062Z,8.57
2023-02-17T09:52:15.578Z,9.52
2023-02-17T09:55:04.377Z,9.45
2023-02-17T09:57:37.740Z,8.43
2023-02-17T10:00:12.642Z,8.93
2023-02-17T10:03:02.059Z,9.35
2023-02-17T10:05:36.474Z,9.40
2023-02-17T10:08:09.474Z,8.95
2023-02-17T10:10:46.876Z,9.73
2023-02-17T10:13:18.027Z,9.82
2023-02-17T10:15:49.295Z,10.10
2023-02-17T10:19:05.634Z,10.18
2023-02-17T10:21:39.352Z,10.43
2023-02-17T10:24:06.120Z,10.68
2023-02-17T10:26:57.595Z,9.98
2023-02-17T10:29:43.093Z,10.95
2023-02-17T10:32:24.991Z,10.18
2023-02-17T10:35:22.848Z,10.65
2023-02-17T10:37:55.370Z,10.15
2023-02-17T10:40:25.418Z,10.55
2023-02-17T10:42:57.687Z,10.68
2023-02-17T10:46:12.144Z,10.60
2023-02-17T10:48:47.085Z,9.95
2023-02-17T10:51:16.783Z,10.45
2023-02-17T10:53:49.284Z,10.38
2023-02-17T10:56:28.897Z,10.60
2023-02-17T10:59:03.019Z,10.88
2023-02-17T11:01:29.855Z,11.02
2023-02-17T11:04:06.300Z,11.45
2023-02-17T11:06:37.983Z,11.82
2023-02-17T11:09:09.237Z,11.50
2023-02-17T11:11:36.890Z,11.82
2023-02-17T11:14:14.482Z,12.40
2023-02-17T11:16:54.729Z,12.57
2023-02-17T11:19:36.215Z,12.68
2023-02-17T11:22:06.228Z,11.85
2023-02-17T11:24:34.913Z,13.00
2023-02-17T11:27:10.559Z,13.35
2023-02-17T11:29:37.664Z,11.85
2023-02-17T11:32:08.994Z,11.82
2023-02-17T11:34:39.556Z,11.90
2023-02-17T11:37:12.102Z,12.23
2023-02-17T11:39:41.464Z,12.45
2023-02-17T11:42:28.381Z,11.60
2023-02-17T11:44:57.570Z,11.73
2023-02-17T11:47:43.968Z,11.27
2023-02-17T11:50:40.094Z,10.73
2023-02-17T11:53:28.637Z,9.77
2023-02-17T11:56:33.379Z,10.35
2023-02-17T11:59:14.896Z,10.90
2023-02-17T12:01:44.566Z,11.82
2023-02-17T12:04:29.744Z,11.18
2023-02-17T12:07:05.176Z,11.00
2023-02-17T12:09:48.404Z,10.95
2023-02-17T12:12:40.948Z,11.43
2023-02-17T12:15:32.583Z,12.38
2023-02-17T12:18:20.507Z,12.18
2023-02-17T12:21:05.569Z,11.93
2023-02-17T12:23:45.657Z,11.52
2023-02-17T12:26:37.755Z,12.38
2023-02-17T12:29:04.391Z,12.63
2023-02-17T12:31:55.538Z,12.48
2023-02-17T12:34:55.723Z,12.25
2023-02-17T12:37:28.915Z,13.68
2023-02-17T12:40:03.860Z,15.32
2023-02-17T12:42:35.706Z,15.57
2023-02-17T12:45:18.730Z,15.80
2023-02-17T12:47:54.694Z,16.00
2023-02-17T12:50:27.446Z,15.70
2023-02-17T12:52:57.579Z,15.43
2023-02-17T12:55:50.639Z,15.38
2023-02-17T12:58:28.443Z,15.48
2023-02-17T13:01:06.164Z,13.23
2023-02-17T13:03:35.641Z,13.45
2023-02-17T13:06:11.387Z,14.23
2023-02-17T13:08:44.480Z,13.02
2023-02-17T13:11:13.983Z,11.65
2023-02-17T13:13:40.717Z,11.55
2023-02-17T13:16:13.659Z,12.40
2023-02-17T13:18:43.435Z,11.80
2023-02-17T13:21:31.873Z,11.90
2023-02-17T13:24:07.610Z,11.95
2023-02-17T13:26:38.967Z,11.05
2023-02-17T13:29:24.130Z,11.15
2023-02-17T13:31:50.845Z,10.70
2023-02-17T13:34:46.179Z,9.10
2023-02-17T13:37:37.092Z,8.70
2023-02-17T13:40:25.427Z,8.60
2023-02-17T13:42:54.415Z,7.50
2023-02-17T13:45:28.505Z,6.28
2023-02-17T13:48:00.795Z,5.20
2023-02-17T13:50:36.245Z,5.60
2023-02-17T13:53:21.191Z,4.97
2023-02-17T13:55:48.033Z,5.38
2023-02-17T13:58:14.575Z,5.93
2023-02-17T14:00:43.893Z,5.30
2023-02-17T14:03:28.848Z,5.80
2023-02-17T14:05:57.951Z,5.40
2023-02-17T14:08:39.434Z,4.40
2023-02-17T14:11:14.872Z,3.90
2023-02-17T14:13:47.591Z,3.85
2023-02-17T14:16:34.962Z,3.35
2023-02-17T14:19:09.247Z,3.17
2023-02-17T14:21:38.286Z,3.53
2023-02-17T14:24:05.423Z,3.55
2023-02-17T14:26:39.737Z,3.00
2023-02-17T14:29:09.137Z,3.42
2023-02-17T14:31:39.940Z,3.58
2023-02-17T14:34:07.777Z,3.65
2023-02-17T14:36:37.302Z,4.60
2023-02-17T14:39:07.261Z,4.55
2023-02-17T14:41:34.608Z,4.85
2023-02-17T14:44:01.450Z,4.78
2023-02-17T14:46:28.176Z,4.00
2023-02-17T14:48:55.234Z,4.97
2023-02-17T14:51:25.767Z,4.70
2023-02-17T14:53:53.017Z,4.05
2023-02-17T14:56:27.740Z,3.78
2023-02-17T14:58:54.383Z,3.85
2023-02-17T15:01:23.030Z,4.13
2023-02-17T15:03:50.052Z,3.58
2023-02-17T15:06:28.809Z,3.35
2023-02-17T15:08:56.658Z,3.85
2023-02-17T15:11:37.362Z,3.22
2023-02-17T15:14:04.911Z,5.03
2023-02-17T15:16:31.799Z,4.32
2023-02-17T15:18:58.501Z,4.22
2023-02-17T15:21:33.940Z,3.78
2023-02-17T15:26:30.598Z,3.53
2023-02-17T15:28:58.161Z,3.72
2023-02-17T15:31:29.964Z,3.60
2023-02-17T15:33:58.903Z,3.50
2023-02-17T15:36:26.465Z,3.55
2023-02-17T15:38:53.191Z,3.35
2023-02-17T15:41:24.236Z,3.10
2023-02-17T15:43:51.586Z,3.20
2023-02-17T15:46:20.396Z,3.25
2023-02-17T15:48:52.340Z,3.22
2023-02-17T15:51:19.993Z,3.17
2023-02-17T15:53:47.857Z,3.40
2023-02-17T15:56:22.169Z,3.58
2023-02-17T15:58:50.454Z,3.22
2023-02-17T16:01:29.208Z,3.80
2023-02-17T16:03:57.413Z,2.83
2023-02-17T16:06:25.329Z,3.58
2023-02-17T16:08:52.128Z,3.15
2023-02-17T16:11:21.348Z,3.20
2023-02-17T16:13:48.808Z,3.10
2023-02-17T16:16:19.283Z,3.15
2023-02-17T16:18:49.355Z,3.17
2023-02-17T16:21:16.600Z,3.22
2023-02-17T16:23:43.852Z,3.22
2023-02-17T16:26:17.558Z,3.05
2023-02-17T16:28:45.643Z,3.17
2023-02-17T16:31:12.394Z,3.47
2023-02-17T16:33:39.101Z,3.22
2023-02-17T16:36:13.828Z,3.90
2023-02-17T16:38:40.983Z,3.95
2023-02-17T16:41:07.922Z,4.07
2023-02-17T16:43:34.560Z,3.72
2023-02-17T16:46:04.821Z,4.00
2023-02-17T16:48:34.260Z,4.32
2023-02-17T16:51:01.534Z,4.50
2023-02-17T16:53:28.590Z,4.10
2023-02-17T16:55:56.245Z,4.55
2023-02-17T16:58:24.927Z,4.50
2023-02-17T17:00:53.929Z,4.50
2023-02-17T17:03:24.382Z,4.68
2023-02-17T17:05:52.712Z,4.63
2023-02-17T17:08:21.580Z,4.03
2023-02-17T17:10:49.554Z,4.07
2023-02-17T17:13:16.618Z,4.18
2023-02-17T17:15:45.258Z,4.03
2023-02-17T17:18:21.555Z,4.60
2023-02-17T17:20:48.817Z,4.57
2023-02-17T17:23:15.975Z,4.60
2023-02-17T17:25:46.846Z,4.70
2023-02-17T17:28:15.684Z,4.47
2023-02-17T17:30:42.531Z,5.40
2023-02-17T17:33:09.063Z,4.53
2023-02-17T17:35:36.525Z,4.90
2023-02-17T17:38:03.155Z,4.88
2023-02-17T17:40:32.963Z,5.05
2023-02-17T17:42:59.905Z,4.88
2023-02-17T17:45:26.655Z,5.20
2023-02-17T17:47:53.383Z,5.28
2023-02-17T17:50:23.210Z,5.63
2023-02-17T17:52:49.937Z,5.93
2023-02-17T17:55:16.781Z,6.03
2023-02-17T17:57:43.423Z,5.78
2023-02-17T18:00:14.057Z,5.82
2023-02-17T18:02:43.756Z,5.75
2023-02-17T18:05:11.014Z,6.18
2023-02-17T18:07:38.552Z,6.10
2023-02-17T18:10:07.260Z,6.00
2023-02-17T18:12:34.192Z,6.15
2023-02-17T18:15:02.985Z,6.55
2023-02-17T18:17:33.711Z,6.45
2023-02-17T18:20:00.366Z,6.38
2023-02-17T18:22:27.091Z,6.53
2023-02-17T18:24:53.902Z,6.65
2023-02-17T18:27:20.589Z,6.82
2023-02-17T18:29:47.200Z,7.20
2023-02-17T18:32:13.890Z,7.43
2023-02-17T18:34:40.396Z,7.55
2023-02-17T18:37:08.169Z,7.70
2023-02-17T18:39:34.819Z,7.75
2023-02-17T18:42:01.404Z,8.00
2023-02-17T18:44:28.039Z,7.82
2023-02-17T18:46:54.683Z,7.47
2023-02-17T18:49:21.416Z,7.50
2023-02-17T18:51:48.048Z,8.52
2023-02-17T18:54:15.299Z,7.72
2023-02-17T18:56:41.953Z,9.23
2023-02-17T18:59:08.582Z,8.70
2023-02-17T19:01:39.473Z,9.00
2023-02-17T19:04:06.868Z,8.52
2023-02-17T19:06:34.924Z,8.90
2023-02-17T19:09:04.139Z,9.63
2023-02-17T19:11:32.195Z,9.70
2023-02-17T19:14:00.778Z,10.68
2023-02-17T19:16:29.414Z,11.02
2023-02-17T19:18:56.720Z,10.65
2023-02-17T19:21:23.558Z,10.80
2023-02-17T19:23:51.322Z,10.90
2023-02-17T19:26:18.898Z,10.90
2023-02-17T19:28:46.228Z,11.27
2023-02-17T19:31:15.916Z,12.13
2023-02-17T19:33:44.315Z,11.73
2023-02-17T19:36:14.022Z,12.15
2023-02-17T19:38:40.661Z,11.25
2023-02-17T19:41:09.557Z,12.52
2023-02-17T19:43:36.293Z,12.05
2023-02-17T19:46:03.980Z,11.40
2023-02-17T19:48:30.592Z,11.95
2023-02-17T19:51:03.288Z,12.18
2023-02-17T19:53:31.650Z,11.77
2023-02-17T19:56:11.338Z,12.07
2023-02-17T19:58:38.957Z,11.55
2023-02-17T20:01:20.261Z,11.60
2023-02-17T20:03:47.380Z,11.98
2023-02-17T20:06:17.396Z,11.57
2023-02-17T20:08:45.466Z,13.43
2023-02-17T20:11:12.414Z,12.70
2023-02-17T20:13:45.818Z,12.18
2023-02-17T20:16:14.814Z,12.07
2023-02-17T20:18:44.751Z,12.07
2023-02-17T20:21:14.417Z,13.30
2023-02-17T20:23:41.163Z,13.45
2023-02-17T20:26:10.442Z,13.02
2023-02-17T20:28:37.597Z,13.73
2023-02-17T20:31:05.624Z,13.77
2023-02-17T20:33:32.597Z,14.02
2023-02-17T20:35:59.251Z,13.07
2023-02-17T20:38:25.785Z,12.82
2023-02-17T20:40:52.522Z,13.40
2023-02-17T20:43:20.291Z,13.32
2023-02-17T20:45:49.278Z,16.75
2023-02-17T20:48:16.225Z,13.13
2023-02-17T20:50:43.587Z,13.18
2023-02-17T20:53:10.213Z,13.82
2023-02-17T20:55:37.064Z,12.50
2023-02-17T20:58:04.101Z,13.15
2023-02-17T21:00:30.994Z,13.95
2023-02-17T21:02:57.838Z,12.15
2023-02-17T21:05:26.297Z,12.85
2023-02-17T21:07:53.311Z,12.50
2023-02-17T21:10:27.428Z,12.45
2023-02-17T21:12:54.906Z,13.52
2023-02-17T21:15:22.336Z,12.07
2023-02-17T21:17:49.578Z,13.07
2023-02-17T21:20:19.402Z,14.02
2023-02-17T21:22:46.447Z,13.38
2023-02-17T21:25:13.386Z,14.13
2023-02-17T21:27:40.022Z,13.10
2023-02-17T21:30:08.545Z,14.27
2023-02-17T21:32:35.307Z,14.40
2023-02-17T21:35:02.091Z,13.27
2023-02-17T21:37:28.922Z,14.38
2023-02-17T21:39:55.594Z,15.95
2023-02-17T21:42:44.639Z,15.35
2023-02-17T21:45:12.483Z,16.25
2023-02-17T21:47:39.138Z,15.32
2023-02-17T21:50:06.488Z,15.55
2023-02-17T21:52:33.047Z,16.35
2023-02-17T21:55:01.156Z,16.77
2023-02-17T21:57:27.815Z,16.58
2023-02-17T21:59:54.352Z,17.23
2023-02-17T22:02:20.999Z,17.00
2023-02-17T22:04:47.620Z,16.38
2023-02-17T22:07:14.257Z,16.48
2023-02-17T22:09:40.790Z,17.83
2023-02-17T22:12:07.533Z,16.90
2023-02-17T22:14:34.167Z,17.08
2023-02-17T22:17:01.116Z,15.57
2023-02-17T22:19:31.285Z,15.27
2023-02-17T22:21:58.193Z,15.25
2023-02-17T22:24:27.432Z,16.23
2023-02-17T22:26:54.514Z,15.30
2023-02-17T22:29:21.054Z,17.13
2023-02-17T22:31:50.459Z,16.02
2023-02-17T22:34:17.300Z,17.50
2023-02-17T22:36:44.054Z,15.55
2023-02-17T22:39:10.669Z,16.65
2023-02-17T22:41:38.779Z,16.75
2023-02-17T22:44:05.546Z,16.48
2023-02-17T22:46:32.280Z,17.05
2023-02-17T22:48:59.480Z,17.20
2023-02-17T22:51:29.485Z,18.02
2023-02-17T22:53:58.406Z,17.95
2023-02-17T22:56:25.221Z,18.05
2023-02-17T22:58:55.952Z,18.77
2023-02-17T23:01:23.514Z,17.42
2023-02-17T23:03:54.450Z,17.85
2023-02-17T23:06:29.632Z,18.65
2023-02-17T23:08:57.038Z,18.77
2023-02-17T23:11:45.787Z,19.77
2023-02-17T23:14:14.074Z,17.50
2023-02-17T23:16:41.203Z,19.02
2023-02-17T23:19:09.719Z,19.13
2023-02-17T23:21:37.154Z,18.90
2023-02-17T23:24:04.196Z,18.38
2023-02-17T23:26:30.728Z,18.77
2023-02-17T23:28:57.344Z,20.25
2023-02-17T23:31:23.999Z,20.77
2023-02-17T23:33:50.742Z,23.27
2023-02-17T23:36:17.496Z,23.02
2023-02-17T23:38:44.014Z,24.23
2023-02-17T23:41:10.961Z,26.52
2023-02-17T23:43:37.598Z,27.42
2023-02-17T23:46:04.462Z,27.83
2023-02-17T23:48:31.076Z,27.08
2023-02-17T23:51:03.855Z,26.20
2023-02-17T23:53:31.618Z,27.38
2023-02-17T23:56:11.157Z,28.63
2023-02-17T23:58:37.799Z,28.25
